sensor_id;sensor_type;location;lat;lon;timestamp;pressure;altitude;pressure_sealevel;temperature;humidity
41334;BME280;27078;46.428;6.256;2023-02-08T00:01:09;97872.00;;;1.65;80.23
41334;BME280;27078;46.428;6.256;2023-02-08T00:03:35;97866.75;;;1.66;78.99
41334;BME280;27078;46.428;6.256;2023-02-08T00:06:00;97866.06;;;1.61;81.32
41334;BME280;27078;46.428;6.256;2023-02-08T00:08:26;97866.13;;;1.58;78.45
41334;BME280;27078;46.428;6.256;2023-02-08T00:10:52;97864.78;;;1.45;80.77
41334;BME280;27078;46.428;6.256;2023-02-08T00:13:17;97872.06;;;1.33;79.71
41334;BME280;27078;46.428;6.256;2023-02-08T00:15:44;97877.53;;;1.24;80.36
41334;BME280;27078;46.428;6.256;2023-02-08T00:18:09;97871.06;;;1.08;82.42
41334;BME280;27078;46.428;6.256;2023-02-08T00:20:37;97865.81;;;0.78;83.99
41334;BME280;27078;46.428;6.256;2023-02-08T00:23:03;97866.16;;;0.66;85.34
41334;BME280;27078;46.428;6.256;2023-02-08T00:25:28;97873.34;;;0.56;87.59
41334;BME280;27078;46.428;6.256;2023-02-08T00:27:54;97868.75;;;0.66;90.24
41334;BME280;27078;46.428;6.256;2023-02-08T00:30:19;97877.91;;;0.46;90.02
41334;BME280;27078;46.428;6.256;2023-02-08T00:32:45;97870.38;;;0.37;91.71
41334;BME280;27078;46.428;6.256;2023-02-08T00:35:10;97875.13;;;0.19;94.30
41334;BME280;27078;46.428;6.256;2023-02-08T00:37:35;97871.09;;;0.06;96.30
41334;BME280;27078;46.428;6.256;2023-02-08T00:40:00;97871.78;;;0.14;98.30
41334;BME280;27078;46.428;6.256;2023-02-08T00:42:27;97875.47;;;0.04;97.42
41334;BME280;27078;46.428;6.256;2023-02-08T00:44:53;97874.16;;;-0.12;100.00
41334;BME280;27078;46.428;6.256;2023-02-08T00:47:18;97865.28;;;-0.02;100.00
41334;BME280;27078;46.428;6.256;2023-02-08T00:49:43;97868.44;;;0.09;100.00
41334;BME280;27078;46.428;6.256;2023-02-08T00:52:09;97870.97;;;0.12;100.00
41334;BME280;27078;46.428;6.256;2023-02-08T00:54:34;97866.47;;;0.19;100.00
41334;BME280;27078;46.428;6.256;2023-02-08T00:56:59;97853.25;;;0.28;100.00
41334;BME280;27078;46.428;6.256;2023-02-08T00:59:25;97855.16;;;0.22;100.00
41334;BME280;27078;46.428;6.256;2023-02-08T01:01:51;97858.47;;;0.28;100.00
41334;BME280;27078;46.428;6.256;2023-02-08T01:04:17;97848.03;;;0.30;100.00
41334;BME280;27078;46.428;6.256;2023-02-08T01:06:42;97846.50;;;0.21;100.00
41334;BME280;27078;46.428;6.256;2023-02-08T01:09:08;97858.38;;;0.31;100.00
41334;BME280;27078;46.428;6.256;2023-02-08T01:11:33;97852.72;;;0.15;100.00
41334;BME280;27078;46.428;6.256;2023-02-08T01:13:58;97858.84;;;0.13;100.00
41334;BME280;27078;46.428;6.256;2023-02-08T01:16:27;97855.63;;;0.02;100.00
41334;BME280;27078;46.428;6.256;2023-02-08T01:18:55;97859.06;;;0.04;100.00
41334;BME280;27078;46.428;6.256;2023-02-08T01:21:26;97862.50;;;0.04;100.00
41334;BME280;27078;46.428;6.256;2023-02-08T01:23:52;97860.00;;;0.01;100.00
41334;BME280;27078;46.428;6.256;2023-02-08T01:26:18;97854.06;;;-0.04;100.00
41334;BME280;27078;46.428;6.256;2023-02-08T01:28:44;97855.75;;;-0.03;100.00
41334;BME280;27078;46.428;6.256;2023-02-08T01:31:13;97855.09;;;-0.11;100.00
41334;BME280;27078;46.428;6.256;2023-02-08T01:33:39;97859.56;;;-0.18;100.00
41334;BME280;27078;46.428;6.256;2023-02-08T01:36:05;97853.06;;;-0.36;100.00
41334;BME280;27078;46.428;6.256;2023-02-08T01:38:31;97857.50;;;-0.41;100.00
41334;BME280;27078;46.428;6.256;2023-02-08T01:40:57;97851.69;;;-0.51;100.00
41334;BME280;27078;46.428;6.256;2023-02-08T01:43:25;97852.53;;;-0.50;100.00
41334;BME280;27078;46.428;6.256;2023-02-08T01:45:51;97857.75;;;-0.52;100.00
41334;BME280;27078;46.428;6.256;2023-02-08T01:51:06;97849.16;;;-0.16;100.00
41334;BME280;27078;46.428;6.256;2023-02-08T01:53:34;97841.50;;;-0.23;100.00
41334;BME280;27078;46.428;6.256;2023-02-08T01:56:04;97839.63;;;-0.16;100.00
41334;BME280;27078;46.428;6.256;2023-02-08T01:58:35;97840.81;;;-0.31;100.00
41334;BME280;27078;46.428;6.256;2023-02-08T02:01:03;97834.59;;;-0.24;100.00
41334;BME280;27078;46.428;6.256;2023-02-08T02:03:28;97845.09;;;-0.28;100.00
41334;BME280;27078;46.428;6.256;2023-02-08T02:06:00;97836.50;;;-0.32;100.00
41334;BME280;27078;46.428;6.256;2023-02-08T02:08:27;97826.78;;;-0.24;100.00
41334;BME280;27078;46.428;6.256;2023-02-08T02:10:52;97833.78;;;-0.26;100.00
41334;BME280;27078;46.428;6.256;2023-02-08T02:13:22;97830.41;;;-0.29;100.00
41334;BME280;27078;46.428;6.256;2023-02-08T02:15:49;97833.84;;;-0.29;100.00
41334;BME280;27078;46.428;6.256;2023-02-08T02:18:25;97827.44;;;-0.14;100.00
41334;BME280;27078;46.428;6.256;2023-02-08T02:34:01;97838.19;;;0.41;100.00
41334;BME280;27078;46.428;6.256;2023-02-08T02:36:32;97841.59;;;0.43;100.00
41334;BME280;27078;46.428;6.256;2023-02-08T02:39:04;97833.84;;;0.42;100.00
41334;BME280;27078;46.428;6.256;2023-02-08T02:41:39;97845.19;;;0.39;100.00
41334;BME280;27078;46.428;6.256;2023-02-08T02:44:38;97842.66;;;0.36;100.00
41334;BME280;27078;46.428;6.256;2023-02-08T02:47:25;97852.41;;;0.28;100.00
41334;BME280;27078;46.428;6.256;2023-02-08T02:50:01;97849.22;;;0.16;100.00
41334;BME280;27078;46.428;6.256;2023-02-08T02:52:44;97843.13;;;0.17;100.00
41334;BME280;27078;46.428;6.256;2023-02-08T02:55:14;97852.78;;;0.12;100.00
41334;BME280;27078;46.428;6.256;2023-02-08T02:57:42;97851.94;;;0.12;100.00
41334;BME280;27078;46.428;6.256;2023-02-08T03:00:10;97850.44;;;0.02;100.00
41334;BME280;27078;46.428;6.256;2023-02-08T03:02:36;97853.31;;;-0.11;100.00
41334;BME280;27078;46.428;6.256;2023-02-08T03:05:02;97853.31;;;-0.09;100.00
41334;BME280;27078;46.428;6.256;2023-02-08T03:07:48;97865.72;;;-0.22;100.00
41334;BME280;27078;46.428;6.256;2023-02-08T03:10:39;97864.06;;;-0.25;100.00
41334;BME280;27078;46.428;6.256;2023-02-08T03:31:53;97862.13;;;-0.54;100.00
41334;BME280;27078;46.428;6.256;2023-02-08T03:34:27;97875.91;;;-0.52;100.00
41334;BME280;27078;46.428;6.256;2023-02-08T03:37:04;97875.91;;;-0.52;100.00
41334;BME280;27078;46.428;6.256;2023-02-08T03:39:34;97874.81;;;-0.40;100.00
41334;BME280;27078;46.428;6.256;2023-02-08T03:42:05;97880.50;;;-0.24;100.00
41334;BME280;27078;46.428;6.256;2023-02-08T03:44:41;97875.06;;;-0.15;100.00
41334;BME280;27078;46.428;6.256;2023-02-08T03:47:22;97884.44;;;-0.08;100.00
41334;BME280;27078;46.428;6.256;2023-02-08T03:49:50;97887.09;;;-0.11;100.00
41334;BME280;27078;46.428;6.256;2023-02-08T03:52:17;97880.56;;;-0.27;100.00
41334;BME280;27078;46.428;6.256;2023-02-08T03:54:55;97880.31;;;-0.16;100.00
41334;BME280;27078;46.428;6.256;2023-02-08T04:00:11;97879.00;;;0.03;100.00
41334;BME280;27078;46.428;6.256;2023-02-08T04:02:43;97880.78;;;0.01;100.00
41334;BME280;27078;46.428;6.256;2023-02-08T04:05:10;97879.66;;;0.11;100.00
41334;BME280;27078;46.428;6.256;2023-02-08T04:07:36;97871.78;;;0.14;100.00
41334;BME280;27078;46.428;6.256;2023-02-08T04:10:02;97874.47;;;0.11;100.00
41334;BME280;27078;46.428;6.256;2023-02-08T04:12:28;97876.81;;;0.20;100.00
41334;BME280;27078;46.428;6.256;2023-02-08T04:14:53;97873.50;;;0.15;100.00
41334;BME280;27078;46.428;6.256;2023-02-08T04:17:18;97872.06;;;0.02;100.00
41334;BME280;27078;46.428;6.256;2023-02-08T04:19:43;97873.88;;;0.00;100.00
41334;BME280;27078;46.428;6.256;2023-02-08T04:22:09;97885.88;;;0.04;100.00
41334;BME280;27078;46.428;6.256;2023-02-08T04:24:34;97888.97;;;-0.16;100.00
41334;BME280;27078;46.428;6.256;2023-02-08T04:26:59;97893.59;;;-0.29;100.00
41334;BME280;27078;46.428;6.256;2023-02-08T04:29:25;97890.03;;;-0.25;100.00
41334;BME280;27078;46.428;6.256;2023-02-08T04:31:50;97882.97;;;-0.19;100.00
41334;BME280;27078;46.428;6.256;2023-02-08T04:34:15;97880.66;;;0.06;100.00
41334;BME280;27078;46.428;6.256;2023-02-08T04:36:41;97879.81;;;0.05;100.00
41334;BME280;27078;46.428;6.256;2023-02-08T04:39:06;97886.56;;;0.12;100.00
41334;BME280;27078;46.428;6.256;2023-02-08T04:41:31;97888.25;;;0.15;100.00
41334;BME280;27078;46.428;6.256;2023-02-08T04:43:57;97885.19;;;-0.03;100.00
41334;BME280;27078;46.428;6.256;2023-02-08T04:46:22;97892.34;;;-0.12;100.00
41334;BME280;27078;46.428;6.256;2023-02-08T04:48:48;97903.84;;;-0.23;100.00
41334;BME280;27078;46.428;6.256;2023-02-08T04:51:14;97901.00;;;-0.13;100.00
41334;BME280;27078;46.428;6.256;2023-02-08T04:53:39;97892.94;;;-0.01;100.00
41334;BME280;27078;46.428;6.256;2023-02-08T04:56:04;97897.19;;;0.03;100.00
41334;BME280;27078;46.428;6.256;2023-02-08T04:58:30;97899.09;;;-0.05;100.00
41334;BME280;27078;46.428;6.256;2023-02-08T05:00:55;97894.97;;;-0.14;100.00
41334;BME280;27078;46.428;6.256;2023-02-08T05:03:20;97889.81;;;-0.15;100.00
41334;BME280;27078;46.428;6.256;2023-02-08T05:05:46;97896.91;;;-0.24;100.00
41334;BME280;27078;46.428;6.256;2023-02-08T05:08:11;97886.09;;;-0.43;100.00
41334;BME280;27078;46.428;6.256;2023-02-08T05:10:36;97898.16;;;-0.40;100.00
41334;BME280;27078;46.428;6.256;2023-02-08T05:13:02;97890.69;;;-0.55;100.00
41334;BME280;27078;46.428;6.256;2023-02-08T05:15:27;97894.53;;;-0.72;100.00
41334;BME280;27078;46.428;6.256;2023-02-08T05:17:52;97900.34;;;-0.62;100.00
41334;BME280;27078;46.428;6.256;2023-02-08T05:20:18;97887.22;;;-0.54;100.00
41334;BME280;27078;46.428;6.256;2023-02-08T05:22:43;97885.94;;;-0.35;100.00
41334;BME280;27078;46.428;6.256;2023-02-08T05:25:09;97888.81;;;-0.10;100.00
41334;BME280;27078;46.428;6.256;2023-02-08T05:27:35;97887.97;;;-0.10;100.00
41334;BME280;27078;46.428;6.256;2023-02-08T05:30:00;97882.41;;;0.05;100.00
41334;BME280;27078;46.428;6.256;2023-02-08T05:32:26;97879.72;;;0.08;100.00
41334;BME280;27078;46.428;6.256;2023-02-08T05:34:51;97884.97;;;0.07;100.00
41334;BME280;27078;46.428;6.256;2023-02-08T05:37:17;97878.72;;;0.14;99.46
41334;BME280;27078;46.428;6.256;2023-02-08T05:39:42;97889.16;;;0.12;100.00
41334;BME280;27078;46.428;6.256;2023-02-08T05:42:07;97883.66;;;0.25;100.00
41334;BME280;27078;46.428;6.256;2023-02-08T05:44:33;97889.78;;;0.22;100.00
41334;BME280;27078;46.428;6.256;2023-02-08T05:46:58;97883.66;;;0.25;100.00
41334;BME280;27078;46.428;6.256;2023-02-08T05:49:23;97881.81;;;0.30;100.00
41334;BME280;27078;46.428;6.256;2023-02-08T05:51:49;97887.06;;;0.27;100.00
41334;BME280;27078;46.428;6.256;2023-02-08T05:54:15;97885.13;;;0.35;100.00
41334;BME280;27078;46.428;6.256;2023-02-08T05:56:40;97887.34;;;0.50;100.00
41334;BME280;27078;46.428;6.256;2023-02-08T05:59:06;97895.97;;;0.52;100.00
41334;BME280;27078;46.428;6.256;2023-02-08T06:01:31;97889.44;;;0.36;98.98
41334;BME280;27078;46.428;6.256;2023-02-08T06:03:58;97895.16;;;0.50;100.00
41334;BME280;27078;46.428;6.256;2023-02-08T06:06:24;97897.72;;;0.52;98.75
41334;BME280;27078;46.428;6.256;2023-02-08T06:08:49;97901.00;;;0.58;100.00
41334;BME280;27078;46.428;6.256;2023-02-08T06:11:14;97904.41;;;0.60;96.66
41334;BME280;27078;46.428;6.256;2023-02-08T06:13:41;97912.06;;;0.67;100.00
41334;BME280;27078;46.428;6.256;2023-02-08T06:16:06;97914.78;;;0.62;98.52
41334;BME280;27078;46.428;6.256;2023-02-08T06:18:31;97909.75;;;0.56;100.00
41334;BME280;27078;46.428;6.256;2023-02-08T06:20:57;97910.97;;;0.43;99.89
41334;BME280;27078;46.428;6.256;2023-02-08T06:23:23;97911.69;;;0.48;96.50
41334;BME280;27078;46.428;6.256;2023-02-08T06:25:49;97910.03;;;0.45;96.91
41334;BME280;27078;46.428;6.256;2023-02-08T06:28:14;97916.19;;;0.41;100.00
41334;BME280;27078;46.428;6.256;2023-02-08T06:30:40;97918.84;;;0.38;97.72
41334;BME280;27078;46.428;6.256;2023-02-08T06:33:06;97912.81;;;0.37;99.02
41334;BME280;27078;46.428;6.256;2023-02-08T06:35:31;97910.22;;;0.36;95.27
41334;BME280;27078;46.428;6.256;2023-02-08T06:37:57;97907.81;;;0.30;96.93
41334;BME280;27078;46.428;6.256;2023-02-08T06:40:23;97909.75;;;0.22;97.79
41334;BME280;27078;46.428;6.256;2023-02-08T06:42:49;97911.66;;;0.13;100.00
41334;BME280;27078;46.428;6.256;2023-02-08T06:45:14;97915.00;;;0.18;100.00
41334;BME280;27078;46.428;6.256;2023-02-08T06:47:40;97918.38;;;0.22;99.16
41334;BME280;27078;46.428;6.256;2023-02-08T06:50:05;97907.97;;;0.24;100.00
41334;BME280;27078;46.428;6.256;2023-02-08T06:52:31;97915.69;;;0.25;97.37
41334;BME280;27078;46.428;6.256;2023-02-08T06:54:56;97911.38;;;0.26;100.00
41334;BME280;27078;46.428;6.256;2023-02-08T06:57:21;97910.34;;;0.31;98.53
41334;BME280;27078;46.428;6.256;2023-02-08T06:59:47;97917.88;;;0.42;100.00
41334;BME280;27078;46.428;6.256;2023-02-08T07:02:14;97905.84;;;0.38;100.00
41334;BME280;27078;46.428;6.256;2023-02-08T07:04:40;97913.59;;;0.41;99.24
41334;BME280;27078;46.428;6.256;2023-02-08T07:07:05;97918.50;;;0.52;98.33
41334;BME280;27078;46.428;6.256;2023-02-08T07:09:34;97913.91;;;0.27;95.76
41334;BME280;27078;46.428;6.256;2023-02-08T07:12:00;97915.28;;;0.42;93.09
41334;BME280;27078;46.428;6.256;2023-02-08T07:14:30;97915.50;;;0.34;93.58
41334;BME280;27078;46.428;6.256;2023-02-08T07:16:55;97912.91;;;0.33;94.49
41334;BME280;27078;46.428;6.256;2023-02-08T07:19:20;97918.13;;;0.33;94.75
41334;BME280;27078;46.428;6.256;2023-02-08T07:21:46;97923.44;;;0.28;93.82
41334;BME280;27078;46.428;6.256;2023-02-08T07:24:11;97917.44;;;0.25;97.40
41334;BME280;27078;46.428;6.256;2023-02-08T07:26:36;97929.31;;;0.36;100.00
41334;BME280;27078;46.428;6.256;2023-02-08T07:29:02;97923.50;;;0.25;93.94
41334;BME280;27078;46.428;6.256;2023-02-08T07:31:27;97924.28;;;0.29;94.69
41334;BME280;27078;46.428;6.256;2023-02-08T07:33:52;97930.59;;;0.18;94.12
41334;BME280;27078;46.428;6.256;2023-02-08T07:36:17;97935.88;;;0.15;95.48
41334;BME280;27078;46.428;6.256;2023-02-08T07:38:43;97939.19;;;0.20;97.55
41334;BME280;27078;46.428;6.256;2023-02-08T07:41:11;97943.94;;;0.03;97.25
41334;BME280;27078;46.428;6.256;2023-02-08T07:43:37;97939.59;;;0.04;95.08
41334;BME280;27078;46.428;6.256;2023-02-08T07:46:07;97941.56;;;-0.06;97.92
41334;BME280;27078;46.428;6.256;2023-02-08T07:48:33;97936.94;;;-0.32;98.38
41334;BME280;27078;46.428;6.256;2023-02-08T07:50:59;97934.44;;;-0.37;99.48
41334;BME280;27078;46.428;6.256;2023-02-08T07:53:24;97938.00;;;-0.43;100.00
41334;BME280;27078;46.428;6.256;2023-02-08T07:55:49;97943.34;;;-0.49;100.00
41334;BME280;27078;46.428;6.256;2023-02-08T07:58:14;97947.69;;;-0.49;100.00
41334;BME280;27078;46.428;6.256;2023-02-08T08:00:40;97944.09;;;-0.42;100.00
41334;BME280;27078;46.428;6.256;2023-02-08T08:03:05;97951.94;;;-0.47;100.00
41334;BME280;27078;46.428;6.256;2023-02-08T08:05:30;97947.69;;;-0.49;99.83
41334;BME280;27078;46.428;6.256;2023-02-08T08:07:56;97942.22;;;-0.37;100.00
41334;BME280;27078;46.428;6.256;2023-02-08T08:10:21;97946.09;;;-0.16;99.98
41334;BME280;27078;46.428;6.256;2023-02-08T08:12:46;97944.31;;;-0.12;96.24
41334;BME280;27078;46.428;6.256;2023-02-08T08:15:12;97947.03;;;-0.18;94.96
41334;BME280;27078;46.428;6.256;2023-02-08T08:17:37;97949.38;;;-0.08;96.52
41334;BME280;27078;46.428;6.256;2023-02-08T08:20:09;97953.53;;;-0.01;95.10
41334;BME280;27078;46.428;6.256;2023-02-08T08:22:35;97955.06;;;-0.29;97.08
41334;BME280;27078;46.428;6.256;2023-02-08T08:25:00;97958.97;;;-0.50;97.61
41334;BME280;27078;46.428;6.256;2023-02-08T08:27:25;97961.56;;;-0.50;99.05
41334;BME280;27078;46.428;6.256;2023-02-08T08:29:51;97960.31;;;-0.32;98.91
41334;BME280;27078;46.428;6.256;2023-02-08T08:32:16;97965.38;;;-0.28;98.65
41334;BME280;27078;46.428;6.256;2023-02-08T08:34:41;97974.06;;;-0.27;98.35
41334;BME280;27078;46.428;6.256;2023-02-08T08:37:08;97960.56;;;-0.04;96.24
41334;BME280;27078;46.428;6.256;2023-02-08T08:39:34;97970.63;;;0.11;94.33
41334;BME280;27078;46.428;6.256;2023-02-08T08:42:00;97961.53;;;-0.08;96.22
41334;BME280;27078;46.428;6.256;2023-02-08T08:44:28;97967.19;;;0.09;95.26
41334;BME280;27078;46.428;6.256;2023-02-08T08:46:54;97969.53;;;0.20;94.35
41334;BME280;27078;46.428;6.256;2023-02-08T08:49:21;97975.47;;;-0.12;92.90
41334;BME280;27078;46.428;6.256;2023-02-08T08:51:46;97972.91;;;-0.14;93.98
41334;BME280;27078;46.428;6.256;2023-02-08T08:54:11;97979.19;;;-0.26;93.75
41334;BME280;27078;46.428;6.256;2023-02-08T08:56:37;97972.41;;;-0.31;93.18
41334;BME280;27078;46.428;6.256;2023-02-08T08:59:02;97972.22;;;-0.22;94.69
41334;BME280;27078;46.428;6.256;2023-02-08T09:01:27;97981.88;;;-0.29;92.04
41334;BME280;27078;46.428;6.256;2023-02-08T09:03:52;97980.59;;;-0.11;91.83
41334;BME280;27078;46.428;6.256;2023-02-08T09:06:18;97970.00;;;0.00;89.83
41334;BME280;27078;46.428;6.256;2023-02-08T09:08:43;97975.00;;;0.08;89.61
41334;BME280;27078;46.428;6.256;2023-02-08T09:11:11;97969.59;;;0.17;87.73
41334;BME280;27078;46.428;6.256;2023-02-08T09:13:37;97980.75;;;0.22;88.16
41334;BME280;27078;46.428;6.256;2023-02-08T09:16:08;97982.41;;;0.26;89.19
41334;BME280;27078;46.428;6.256;2023-02-08T09:18:34;97979.56;;;0.35;87.74
41334;BME280;27078;46.428;6.256;2023-02-08T09:21:07;97982.56;;;0.18;86.63
41334;BME280;27078;46.428;6.256;2023-02-08T09:23:33;97985.00;;;0.26;85.80
41334;BME280;27078;46.428;6.256;2023-02-08T09:26:01;97991.31;;;0.14;87.10
41334;BME280;27078;46.428;6.256;2023-02-08T09:28:27;97990.25;;;0.23;87.39
41334;BME280;27078;46.428;6.256;2023-02-08T09:30:52;97999.66;;;0.29;86.01
41334;BME280;27078;46.428;6.256;2023-02-08T09:33:17;97999.94;;;0.16;84.50
41334;BME280;27078;46.428;6.256;2023-02-08T09:35:42;98000.56;;;0.28;86.52
41334;BME280;27078;46.428;6.256;2023-02-08T09:38:08;98004.06;;;0.63;84.52
41334;BME280;27078;46.428;6.256;2023-02-08T09:49:39;97999.31;;;1.13;79.06
41334;BME280;27078;46.428;6.256;2023-02-08T09:52:11;98006.75;;;1.27;77.25
41334;BME280;27078;46.428;6.256;2023-02-08T09:54:45;97998.47;;;1.12;80.40
41334;BME280;27078;46.428;6.256;2023-02-08T09:57:15;98005.78;;;1.31;76.64
41334;BME280;27078;46.428;6.256;2023-02-08T10:00:06;98007.69;;;1.24;76.13
41334;BME280;27078;46.428;6.256;2023-02-08T10:02:38;98011.59;;;1.08;75.78
41334;BME280;27078;46.428;6.256;2023-02-08T10:05:13;98014.16;;;1.09;77.01
41334;BME280;27078;46.428;6.256;2023-02-08T10:07:43;98016.63;;;1.14;78.23
41334;BME280;27078;46.428;6.256;2023-02-08T10:27:16;98020.38;;;1.36;76.97
41334;BME280;27078;46.428;6.256;2023-02-08T10:29:51;98015.13;;;1.99;72.02
41334;BME280;27078;46.428;6.256;2023-02-08T10:35:07;97997.28;;;2.71;69.12
41334;BME280;27078;46.428;6.256;2023-02-08T10:37:37;97995.47;;;2.98;70.12
41334;BME280;27078;46.428;6.256;2023-02-08T10:42:44;97993.72;;;3.49;65.28
41334;BME280;27078;46.428;6.256;2023-02-08T10:45:26;97987.06;;;3.64;65.18
41334;BME280;27078;46.428;6.256;2023-02-08T10:47:54;97993.97;;;3.66;65.40
41334;BME280;27078;46.428;6.256;2023-02-08T10:50:28;97985.59;;;3.80;66.08
41334;BME280;27078;46.428;6.256;2023-02-08T10:52:56;97977.50;;;3.88;63.41
41334;BME280;27078;46.428;6.256;2023-02-08T10:55:22;97971.84;;;3.99;62.05
41334;BME280;27078;46.428;6.256;2023-02-08T10:57:49;97974.25;;;4.05;63.31
41334;BME280;27078;46.428;6.256;2023-02-08T11:02:42;97977.66;;;4.29;63.78
41334;BME280;27078;46.428;6.256;2023-02-08T11:05:11;97980.63;;;4.42;64.19
41334;BME280;27078;46.428;6.256;2023-02-08T11:07:37;97986.31;;;4.53;62.21
41334;BME280;27078;46.428;6.256;2023-02-08T11:12:40;97983.50;;;4.58;62.12
41334;BME280;27078;46.428;6.256;2023-02-08T11:15:20;97970.38;;;4.59;59.93
41334;BME280;27078;46.428;6.256;2023-02-08T11:17:46;97973.38;;;4.71;62.06
41334;BME280;27078;46.428;6.256;2023-02-08T11:20:35;97977.78;;;4.70;63.61
41334;BME280;27078;46.428;6.256;2023-02-08T11:23:05;97976.66;;;4.32;61.96
41334;BME280;27078;46.428;6.256;2023-02-08T11:25:41;97965.09;;;3.93;62.85
41334;BME280;27078;46.428;6.256;2023-02-08T11:28:25;97978.41;;;3.63;64.05
41334;BME280;27078;46.428;6.256;2023-02-08T11:30:59;97973.41;;;3.32;65.04
41334;BME280;27078;46.428;6.256;2023-02-08T11:33:26;97971.50;;;3.37;65.15
41334;BME280;27078;46.428;6.256;2023-02-08T11:35:56;97975.13;;;3.33;64.51
41334;BME280;27078;46.428;6.256;2023-02-08T11:38:22;97967.72;;;3.70;64.91
41334;BME280;27078;46.428;6.256;2023-02-08T11:40:54;97958.88;;;3.96;64.09
41334;BME280;27078;46.428;6.256;2023-02-08T11:43:29;97966.59;;;4.22;62.68
41334;BME280;27078;46.428;6.256;2023-02-08T11:45:56;97965.88;;;3.95;64.19
41334;BME280;27078;46.428;6.256;2023-02-08T11:48:23;97954.53;;;3.96;65.02
41334;BME280;27078;46.428;6.256;2023-02-08T11:50:59;97954.00;;;3.86;68.21
41334;BME280;27078;46.428;6.256;2023-02-08T11:53:33;97950.66;;;3.83;66.86
41334;BME280;27078;46.428;6.256;2023-02-08T11:56:17;97952.66;;;3.53;66.20
41334;BME280;27078;46.428;6.256;2023-02-08T11:58:56;97954.13;;;3.36;67.63
41334;BME280;27078;46.428;6.256;2023-02-08T12:01:29;97947.00;;;3.41;67.79
41334;BME280;27078;46.428;6.256;2023-02-08T12:03:57;97950.84;;;3.31;68.48
41334;BME280;27078;46.428;6.256;2023-02-08T12:20:34;97929.22;;;4.41;71.85
41334;BME280;27078;46.428;6.256;2023-02-08T12:25:59;97916.06;;;4.85;62.38
41334;BME280;27078;46.428;6.256;2023-02-08T12:29:01;97907.88;;;4.72;63.58
41334;BME280;27078;46.428;6.256;2023-02-08T12:40:25;97876.00;;;4.83;63.21
41334;BME280;27078;46.428;6.256;2023-02-08T12:48:44;97867.38;;;4.81;62.76
41334;BME280;27078;46.428;6.256;2023-02-08T12:53:57;97865.72;;;4.99;62.71
41334;BME280;27078;46.428;6.256;2023-02-08T12:56:28;97861.13;;;5.04;63.55
41334;BME280;27078;46.428;6.256;2023-02-08T12:58:59;97853.47;;;4.99;61.67
41334;BME280;27078;46.428;6.256;2023-02-08T13:01:31;97858.47;;;4.85;62.10
41334;BME280;27078;46.428;6.256;2023-02-08T13:04:19;97853.72;;;4.93;62.32
41334;BME280;27078;46.428;6.256;2023-02-08T13:06:50;97854.41;;;4.78;61.06
41334;BME280;27078;46.428;6.256;2023-02-08T13:14:44;97842.44;;;4.52;63.30
41334;BME280;27078;46.428;6.256;2023-02-08T13:17:18;97841.00;;;4.65;64.10
41334;BME280;27078;46.428;6.256;2023-02-08T13:20:10;97841.63;;;4.90;65.49
41334;BME280;27078;46.428;6.256;2023-02-08T13:22:41;97835.59;;;4.88;61.87
41334;BME280;27078;46.428;6.256;2023-02-08T13:25:15;97829.00;;;5.00;62.44
41334;BME280;27078;46.428;6.256;2023-02-08T13:27:41;97832.72;;;4.95;62.43
41334;BME280;27078;46.428;6.256;2023-02-08T13:30:17;97828.16;;;5.00;63.16
41334;BME280;27078;46.428;6.256;2023-02-08T13:32:44;97828.84;;;5.03;63.21
41334;BME280;27078;46.428;6.256;2023-02-08T13:35:24;97823.06;;;5.16;70.60
41334;BME280;27078;46.428;6.256;2023-02-08T13:38:02;97822.50;;;5.09;61.84
41334;BME280;27078;46.428;6.256;2023-02-08T13:40:31;97828.84;;;5.03;64.37
41334;BME280;27078;46.428;6.256;2023-02-08T13:43:05;97821.75;;;5.05;62.88
41334;BME280;27078;46.428;6.256;2023-02-08T13:45:42;97829.63;;;5.05;62.49
41334;BME280;27078;46.428;6.256;2023-02-08T13:48:15;97830.75;;;5.00;68.79
41334;BME280;27078;46.428;6.256;2023-02-08T13:50:54;97826.00;;;4.89;63.58
41334;BME280;27078;46.428;6.256;2023-02-08T13:56:01;97832.78;;;4.93;66.92
41334;BME280;27078;46.428;6.256;2023-02-08T14:01:19;97825.44;;;5.01;64.81
41334;BME280;27078;46.428;6.256;2023-02-08T14:06:56;97830.09;;;4.95;64.80
41334;BME280;27078;46.428;6.256;2023-02-08T14:12:29;97818.22;;;4.87;66.46
41334;BME280;27078;46.428;6.256;2023-02-08T14:15:14;97820.47;;;4.95;66.39
41334;BME280;27078;46.428;6.256;2023-02-08T14:17:49;97820.19;;;5.01;69.50
41334;BME280;27078;46.428;6.256;2023-02-08T14:20:21;97818.22;;;4.87;64.55
41334;BME280;27078;46.428;6.256;2023-02-08T14:22:53;97820.63;;;4.92;67.30
41334;BME280;27078;46.428;6.256;2023-02-08T14:25:22;97819.06;;;4.88;65.78
41334;BME280;27078;46.428;6.256;2023-02-08T14:27:56;97817.06;;;4.93;65.54
41334;BME280;27078;46.428;6.256;2023-02-08T14:30:26;97826.00;;;4.89;65.77
41334;BME280;27078;46.428;6.256;2023-02-08T14:33:08;97821.88;;;4.83;66.13
41334;BME280;27078;46.428;6.256;2023-02-08T14:35:39;97829.69;;;4.85;64.77
41334;BME280;27078;46.428;6.256;2023-02-08T14:40:54;97828.75;;;4.86;67.62
41334;BME280;27078;46.428;6.256;2023-02-08T14:45:46;97830.31;;;4.69;67.30
41334;BME280;27078;46.428;6.256;2023-02-08T14:48:27;97832.31;;;4.64;66.06
41334;BME280;27078;46.428;6.256;2023-02-08T14:51:05;97820.47;;;4.56;66.97
41334;BME280;27078;46.428;6.256;2023-02-08T14:58:38;97820.78;;;4.48;66.13
41334;BME280;27078;46.428;6.256;2023-02-08T15:03:57;97830.19;;;4.32;69.30
41334;BME280;27078;46.428;6.256;2023-02-08T15:06:41;97831.75;;;4.15;70.09
41334;BME280;27078;46.428;6.256;2023-02-08T15:09:20;97825.84;;;4.10;69.98
41334;BME280;27078;46.428;6.256;2023-02-08T15:12:00;97837.22;;;4.09;70.73
41334;BME280;27078;46.428;6.256;2023-02-08T15:14:27;97837.88;;;4.14;71.63
41334;BME280;27078;46.428;6.256;2023-02-08T15:16:54;97838.13;;;4.08;73.46
41334;BME280;27078;46.428;6.256;2023-02-08T15:19:31;97830.38;;;4.06;73.95
41334;BME280;27078;46.428;6.256;2023-02-08T15:24:54;97831.69;;;3.95;75.36
41334;BME280;27078;46.428;6.256;2023-02-08T15:27:25;97828.16;;;3.96;74.29
41334;BME280;27078;46.428;6.256;2023-02-08T15:29:54;97823.44;;;3.83;74.27
41334;BME280;27078;46.428;6.256;2023-02-08T15:32:22;97827.47;;;3.92;75.46